createdAt,value
2022-08-17T00:04:19.662Z,1.58
2022-08-17T00:09:22.615Z,1.70
2022-08-17T00:14:25.286Z,1.30
2022-08-17T00:19:28.027Z,1.80
2022-08-17T00:24:31.194Z,1.80
2022-08-17T00:29:34.042Z,1.80
2022-08-17T00:34:36.763Z,2.20
2022-08-17T00:39:39.610Z,1.70
2022-08-17T00:44:42.331Z,1.60
2022-08-17T00:49:44.980Z,1.60
2022-08-17T00:54:48.815Z,1.92
2022-08-17T01:00:02.014Z,1.73
2022-08-17T01:05:08.258Z,2.13
2022-08-17T01:11:00.379Z,1.80
2022-08-17T01:15:38.559Z,2.08
2022-08-17T01:21:03.450Z,1.60
2022-08-17T01:26:06.933Z,1.50
2022-08-17T01:31:10.311Z,1.52
2022-08-17T01:36:13.058Z,2.00
2022-08-17T01:41:16.919Z,2.00
2022-08-17T01:46:27.575Z,1.73
2022-08-17T01:51:33.210Z,1.73
2022-08-17T01:56:38.701Z,1.67
2022-08-17T02:06:52.441Z,3.35
2022-08-17T02:11:59.597Z,2.58
2022-08-17T02:17:02.361Z,2.38
2022-08-17T02:22:05.189Z,2.22
2022-08-17T02:27:08.011Z,2.53
2022-08-17T02:32:25.478Z,3.95
2022-08-17T02:37:31.755Z,3.05
2022-08-17T02:42:40.099Z,2.28
2022-08-17T02:47:43.903Z,2.10
2022-08-17T02:52:50.163Z,2.50
2022-08-17T02:58:05.470Z,2.20
2022-08-17T03:03:11.114Z,2.42
2022-08-17T03:13:17.353Z,2.50
2022-08-17T03:18:25.661Z,2.28
2022-08-17T03:23:31.389Z,1.80
2022-08-17T03:28:35.234Z,1.77
2022-08-17T03:33:38.076Z,1.70
2022-08-17T03:38:40.847Z,2.17
2022-08-17T03:43:44.205Z,2.05
2022-08-17T03:49:05.522Z,1.90
2022-08-17T03:54:27.807Z,2.20
2022-08-17T03:59:31.559Z,2.50
2022-08-17T04:04:34.614Z,1.80
2022-08-17T04:09:37.423Z,2.03
2022-08-17T04:14:51.811Z,2.38
2022-08-17T04:19:57.750Z,2.20
2022-08-17T04:25:06.057Z,2.90
2022-08-17T04:30:09.504Z,2.40
2022-08-17T04:35:12.427Z,2.45
2022-08-17T04:40:33.428Z,2.90
2022-08-17T04:45:55.226Z,3.22
2022-08-17T04:51:00.363Z,3.15
2022-08-17T04:56:03.362Z,3.03
2022-08-17T05:01:07.461Z,2.95
2022-08-17T05:06:10.392Z,2.50
2022-08-17T05:11:13.157Z,2.50
2022-08-17T05:16:16.182Z,2.70
2022-08-17T05:21:20.125Z,2.10
2022-08-17T05:26:26.124Z,2.30
2022-08-17T05:31:30.632Z,2.13
2022-08-17T05:36:37.870Z,1.83
2022-08-17T05:41:48.355Z,2.20
2022-08-17T05:46:52.723Z,1.88
2022-08-17T05:52:42.941Z,1.83
2022-08-17T05:57:53.654Z,1.70
2022-08-17T06:03:36.631Z,1.92
2022-08-17T06:08:46.366Z,1.90
2022-08-17T06:14:09.631Z,1.95
2022-08-17T06:19:26.332Z,1.85
2022-08-17T06:24:53.679Z,1.88
2022-08-17T06:30:02.801Z,1.65
2022-08-17T06:35:11.030Z,1.80
2022-08-17T06:40:28.901Z,1.77
2022-08-17T06:45:40.106Z,1.67
2022-08-17T06:50:47.781Z,1.20
2022-08-17T06:56:09.370Z,1.42
2022-08-17T07:01:18.694Z,1.30
2022-08-17T07:06:23.897Z,1.10
2022-08-17T07:11:33.823Z,1.50
2022-08-17T07:16:44.392Z,1.30
2022-08-17T07:21:58.297Z,1.60
2022-08-17T07:27:11.445Z,1.30
2022-08-17T07:32:18.940Z,2.00
2022-08-17T07:37:21.675Z,1.48
2022-08-17T07:42:28.977Z,1.20
2022-08-17T07:47:50.393Z,1.20
2022-08-17T07:52:53.414Z,1.70
2022-08-17T07:57:58.641Z,1.50
2022-08-17T08:03:34.501Z,1.75
2022-08-17T08:08:44.645Z,1.45
2022-08-17T08:13:50.206Z,1.60
2022-08-17T08:18:59.089Z,1.58
2022-08-17T08:24:30.965Z,2.10
2022-08-17T08:29:45.988Z,1.85
2022-08-17T08:35:07.118Z,2.10
2022-08-17T08:40:34.240Z,2.10
2022-08-17T08:46:08.811Z,2.40
2022-08-17T08:51:47.774Z,1.80
2022-08-17T08:57:23.146Z,2.22
2022-08-17T09:02:45.857Z,2.20
2022-08-17T09:07:57.399Z,2.47
2022-08-17T09:13:22.519Z,2.20
2022-08-17T09:19:02.914Z,2.55
2022-08-17T09:24:05.409Z,3.17
2022-08-17T09:29:10.406Z,2.63
2022-08-17T09:34:21.591Z,2.70
2022-08-17T09:39:35.597Z,2.65
2022-08-17T09:45:01.752Z,2.60
2022-08-17T09:51:01.564Z,2.90
2022-08-17T09:56:03.487Z,2.53
2022-08-17T10:01:32.103Z,3.00
2022-08-17T10:06:48.279Z,2.63
2022-08-17T10:12:17.106Z,3.00
2022-08-17T10:17:26.488Z,3.17
2022-08-17T10:23:02.839Z,3.50
2022-08-17T10:28:09.793Z,3.55
2022-08-17T10:33:28.822Z,3.20
2022-08-17T10:38:38.250Z,3.00
2022-08-17T10:44:39.608Z,3.35
2022-08-17T10:49:29.777Z,3.70
2022-08-17T10:54:38.766Z,2.80
2022-08-17T10:59:42.326Z,2.63
2022-08-17T11:05:14.426Z,2.35
2022-08-17T11:10:25.892Z,2.45
2022-08-17T11:15:41.673Z,2.55
2022-08-17T11:21:21.526Z,1.90
2022-08-17T11:26:30.723Z,2.05
2022-08-17T11:31:46.953Z,1.60
2022-08-17T11:37:19.037Z,2.20
2022-08-17T11:43:00.563Z,1.90
2022-08-17T11:48:34.129Z,1.58
2022-08-17T11:53:39.989Z,2.00
2022-08-17T11:58:47.333Z,1.95
2022-08-17T12:09:45.405Z,2.00
2022-08-17T12:15:11.915Z,2.70
2022-08-17T12:20:22.531Z,2.10
2022-08-17T12:25:52.084Z,2.38
2022-08-17T12:31:08.611Z,2.22
2022-08-17T12:36:21.759Z,2.42
2022-08-17T12:41:43.699Z,2.63
2022-08-17T12:46:56.794Z,2.80
2022-08-17T12:52:19.984Z,3.03
2022-08-17T12:57:34.543Z,3.17
2022-08-17T13:02:51.232Z,2.80
2022-08-17T13:07:57.109Z,2.78
2022-08-17T13:13:07.764Z,2.60
2022-08-17T13:18:42.402Z,3.08
2022-08-17T13:24:10.051Z,2.80
2022-08-17T13:29:35.183Z,2.40
2022-08-17T13:35:07.764Z,2.53
2022-08-17T13:40:12.248Z,2.45
2022-08-17T13:45:39.602Z,2.47
2022-08-17T13:50:51.149Z,2.67
2022-08-17T13:56:04.629Z,2.28
2022-08-17T14:01:49.675Z,2.10
2022-08-17T14:07:22.445Z,3.67
2022-08-17T14:12:32.048Z,4.18
2022-08-17T14:17:39.014Z,3.75
2022-08-17T14:22:45.474Z,4.57
2022-08-17T14:27:53.445Z,5.55
2022-08-17T14:33:25.939Z,5.70
2022-08-17T14:38:28.809Z,5.70
2022-08-17T14:43:35.693Z,4.88
2022-08-17T14:48:40.986Z,4.03
2022-08-17T14:53:43.864Z,4.00
2022-08-17T14:58:46.770Z,3.75
2022-08-17T15:03:49.510Z,3.38
2022-08-17T15:08:54.615Z,3.90
2022-08-17T15:13:57.682Z,2.90
2022-08-17T15:19:00.626Z,3.25
2022-08-17T15:24:04.643Z,2.63
2022-08-17T15:29:10.595Z,2.88
2022-08-17T15:34:15.906Z,2.55
2022-08-17T15:39:19.678Z,2.80
2022-08-17T15:44:22.885Z,2.30
2022-08-17T15:49:35.447Z,2.83
2022-08-17T15:54:40.478Z,1.90
2022-08-17T15:59:50.785Z,1.90
2022-08-17T16:05:13.742Z,2.08
2022-08-17T16:10:19.251Z,1.98
2022-08-17T16:20:28.536Z,1.90
2022-08-17T16:25:47.210Z,2.00
2022-08-17T16:35:59.299Z,1.80
2022-08-17T16:41:03.301Z,1.90
2022-08-17T16:46:05.989Z,1.92
2022-08-17T16:51:08.889Z,1.67
2022-08-17T16:56:11.596Z,1.90
2022-08-17T17:01:16.113Z,1.90
2022-08-17T17:06:34.313Z,1.70
2022-08-17T17:11:53.395Z,2.17
2022-08-17T17:17:33.897Z,2.30
2022-08-17T17:22:51.228Z,1.90
2022-08-17T17:28:11.856Z,2.03
2022-08-17T17:33:22.926Z,2.00
2022-08-17T17:38:29.511Z,2.10
2022-08-17T17:43:40.353Z,2.10
2022-08-17T17:48:43.449Z,2.10
2022-08-17T17:54:11.597Z,2.15
2022-08-17T17:59:43.774Z,1.95
2022-08-17T18:04:58.803Z,2.00
2022-08-17T18:10:19.725Z,1.90
2022-08-17T18:15:37.404Z,2.20
2022-08-17T18:20:46.590Z,2.30
2022-08-17T18:25:59.071Z,2.28
2022-08-17T18:31:11.040Z,2.03
2022-08-17T18:36:28.180Z,2.35
2022-08-17T18:41:41.057Z,2.40
2022-08-17T18:46:43.758Z,2.20
2022-08-17T18:51:47.046Z,2.38
2022-08-17T18:57:00.135Z,2.45
2022-08-17T19:07:41.408Z,2.25
2022-08-17T19:12:53.523Z,2.65
2022-08-17T19:18:01.745Z,2.00
2022-08-17T19:23:15.459Z,2.65
2022-08-17T19:28:35.316Z,2.17
2022-08-17T19:33:39.250Z,2.17
2022-08-17T19:38:49.143Z,2.28
2022-08-17T19:44:07.060Z,2.03
2022-08-17T19:49:41.041Z,2.22
2022-08-17T19:54:55.753Z,2.10
2022-08-17T20:00:31.660Z,2.30
2022-08-17T20:06:12.148Z,2.05
2022-08-17T20:11:25.550Z,2.30
2022-08-17T20:16:28.370Z,2.20
2022-08-17T20:21:47.076Z,2.20
2022-08-17T20:26:58.532Z,1.92
2022-08-17T20:32:01.776Z,2.00
2022-08-17T20:37:07.306Z,2.90
2022-08-17T20:42:23.275Z,2.30
2022-08-17T20:47:34.071Z,2.20
2022-08-17T20:52:57.221Z,2.30
2022-08-17T20:58:23.464Z,2.22
2022-08-17T21:03:39.941Z,2.20
2022-08-17T21:09:13.731Z,2.38
2022-08-17T21:14:28.642Z,2.30
2022-08-17T21:20:12.872Z,2.40
2022-08-17T21:25:15.629Z,2.40
2022-08-17T21:30:26.240Z,2.63
2022-08-17T21:35:58.737Z,2.30
2022-08-17T21:41:04.148Z,2.47
2022-08-17T21:46:12.852Z,2.70
2022-08-17T21:51:24.638Z,2.35
2022-08-17T21:56:41.402Z,2.67
2022-08-17T22:01:44.126Z,2.35
2022-08-17T22:06:57.071Z,2.45
2022-08-17T22:12:20.900Z,2.35
2022-08-17T22:17:40.330Z,2.40
2022-08-17T22:23:04.269Z,2.63
2022-08-17T22:28:10.160Z,2.50
2022-08-17T22:33:33.250Z,2.72
2022-08-17T22:38:36.318Z,2.78
2022-08-17T22:43:44.690Z,2.53
2022-08-17T22:48:51.848Z,2.30
2022-08-17T22:54:34.043Z,2.75
2022-08-17T22:59:45.590Z,2.72
2022-08-17T23:04:54.767Z,2.38
2022-08-17T23:09:57.491Z,2.50
2022-08-17T23:15:02.067Z,2.60
2022-08-17T23:20:08.660Z,2.50
2022-08-17T23:25:23.926Z,2.95
2022-08-17T23:30:28.816Z,2.70
2022-08-17T23:35:39.053Z,2.85
2022-08-17T23:40:42.373Z,2.60
2022-08-17T23:45:45.133Z,2.90
2022-08-17T23:50:52.054Z,2.88
2022-08-17T23:56:09.574Z,3.03
